WMT3HS LIPZ-LICC
Flight info
| Callsign | WMT3HS |
|---|---|
| Flight time | 1h 28m |
| Altitude | 35000 |
| Route | CHI DCT ALAXI DCT AMANO DCT VAKOR DCT PELEN DCT UXUTA |
| Aircraft | A21N/M-SDE2E3FGHIRWXY/LB1 |
Departure
| Time | 2026-05-04 12:50 |
|---|---|
| Airport | Venice Marco Polo Airport (LIPZ) |
Arrival
| Time | 2026-05-04 14:18 |
|---|---|
| Airport | Catania-Fontanarossa Airport (LICC) |
| Time | Latitude | Longitude | Altitude | Speed | Heading |
|---|---|---|---|---|---|
| 2026-05-04 12:25 | 45.50201 | 12.34122 | 23 ft | 0 kts | 309° |
| 2026-05-04 12:40 | 45.50195 | 12.34133 | 24 ft | 0 kts | 307° |
| 2026-05-04 12:40 | 45.50181 | 12.34165 | 24 ft | 0 kts | 294° |
| 2026-05-04 12:40 | 45.50173 | 12.34201 | 25 ft | 0 kts | 278° |
| 2026-05-04 12:41 | 45.50171 | 12.34219 | 23 ft | 0 kts | 272° |
| 2026-05-04 12:46 | 45.50169 | 12.34203 | 24 ft | 4 kts | 252° |
| 2026-05-04 12:46 | 45.50138 | 12.34156 | 22 ft | 9 kts | 216° |
| 2026-05-04 12:46 | 45.50083 | 12.34083 | 19 ft | 13 kts | 225° |
| 2026-05-04 12:47 | 45.50011 | 12.33989 | 18 ft | 15 kts | 224° |
| 2026-05-04 12:47 | 45.49925 | 12.33879 | 19 ft | 17 kts | 221° |
| 2026-05-04 12:47 | 45.49832 | 12.33760 | 20 ft | 19 kts | 222° |
| 2026-05-04 12:47 | 45.49743 | 12.33655 | 22 ft | 16 kts | 211° |
| 2026-05-04 12:48 | 45.49648 | 12.33568 | 21 ft | 17 kts | 223° |
| 2026-05-04 12:48 | 45.49583 | 12.33519 | 22 ft | 11 kts | 170° |
| 2026-05-04 12:48 | 45.49519 | 12.33589 | 21 ft | 13 kts | 131° |
| 2026-05-04 12:48 | 45.49458 | 12.33688 | 20 ft | 14 kts | 132° |
| 2026-05-04 12:49 | 45.49434 | 12.33801 | 18 ft | 12 kts | 58° |
| 2026-05-04 12:49 | 45.49478 | 12.33862 | 18 ft | 10 kts | 41° |
| 2026-05-04 12:49 | 45.49677 | 12.34117 | 14 ft | 77 kts | 43° |
| 2026-05-04 12:49 | 45.50256 | 12.34859 | 18 ft | 143 kts | 43° |
| 2026-05-04 12:50 | 45.51100 | 12.35925 | 294 ft | 167 kts | 44° |
| 2026-05-04 12:50 | 45.51930 | 12.37047 | 932 ft | 169 kts | 49° |
| 2026-05-04 12:50 | 45.52736 | 12.38287 | 1617 ft | 171 kts | 47° |
| 2026-05-04 12:50 | 45.53531 | 12.39603 | 2291 ft | 176 kts | 63° |
| 2026-05-04 12:51 | 45.53727 | 12.41342 | 2871 ft | 183 kts | 98° |
| 2026-05-04 12:51 | 45.53451 | 12.43149 | 3469 ft | 193 kts | 104° |
| 2026-05-04 12:51 | 45.53163 | 12.45098 | 4026 ft | 210 kts | 101° |
| 2026-05-04 12:51 | 45.52940 | 12.47210 | 4664 ft | 218 kts | 98° |
| 2026-05-04 12:52 | 45.52751 | 12.49370 | 5426 ft | 221 kts | 99° |
| 2026-05-04 12:52 | 45.52509 | 12.51546 | 6155 ft | 225 kts | 105° |
| 2026-05-04 12:52 | 45.51756 | 12.53483 | 6763 ft | 226 kts | 139° |
| 2026-05-04 12:52 | 45.50321 | 12.54487 | 7060 ft | 246 kts | 173° |
| 2026-05-04 12:53 | 45.48539 | 12.54226 | 7301 ft | 266 kts | 196° |
| 2026-05-04 12:53 | 45.46733 | 12.53546 | 8125 ft | 271 kts | 194° |
| 2026-05-04 12:53 | 45.44873 | 12.52953 | 8909 ft | 276 kts | 192° |
| 2026-05-04 12:53 | 45.42975 | 12.52418 | 9708 ft | 280 kts | 192° |
| 2026-05-04 12:54 | 45.41038 | 12.51910 | 10378 ft | 289 kts | 191° |
| 2026-05-04 12:54 | 45.38993 | 12.51398 | 10715 ft | 308 kts | 191° |
| 2026-05-04 12:54 | 45.36815 | 12.50867 | 11002 ft | 327 kts | 190° |
| 2026-05-04 12:54 | 45.34507 | 12.50294 | 11307 ft | 344 kts | 192° |
| 2026-05-04 12:55 | 45.32235 | 12.49159 | 11899 ft | 350 kts | 207° |
| 2026-05-04 12:55 | 45.30112 | 12.47437 | 12629 ft | 353 kts | 211° |
| 2026-05-04 12:55 | 45.27995 | 12.45628 | 13382 ft | 357 kts | 211° |
| 2026-05-04 12:55 | 45.25855 | 12.43807 | 14087 ft | 360 kts | 210° |
| 2026-05-04 12:56 | 45.23687 | 12.41980 | 14744 ft | 364 kts | 210° |
| 2026-05-04 12:56 | 45.21500 | 12.40145 | 15402 ft | 367 kts | 210° |
| 2026-05-04 12:56 | 45.19313 | 12.38320 | 16032 ft | 371 kts | 210° |
| 2026-05-04 12:56 | 45.17074 | 12.36457 | 16667 ft | 375 kts | 210° |
| 2026-05-04 12:57 | 45.14818 | 12.34581 | 17300 ft | 379 kts | 210° |
| 2026-05-04 12:57 | 45.12534 | 12.32681 | 17931 ft | 382 kts | 210° |
| 2026-05-04 12:57 | 45.10220 | 12.30791 | 18547 ft | 386 kts | 207° |
| 2026-05-04 12:57 | 45.07712 | 12.29408 | 19060 ft | 390 kts | 194° |
| 2026-05-04 12:58 | 45.05009 | 12.29015 | 19565 ft | 394 kts | 178° |
| 2026-05-04 12:58 | 45.02286 | 12.29626 | 20086 ft | 399 kts | 168° |
| 2026-05-04 12:58 | 44.99581 | 12.30578 | 20597 ft | 403 kts | 167° |
| 2026-05-04 12:58 | 44.96839 | 12.31568 | 21090 ft | 407 kts | 167° |
| 2026-05-04 12:59 | 44.94080 | 12.32533 | 21555 ft | 412 kts | 167° |
| 2026-05-04 12:59 | 44.91269 | 12.33491 | 22038 ft | 416 kts | 168° |
| 2026-05-04 12:59 | 44.88447 | 12.34443 | 22522 ft | 420 kts | 168° |
| 2026-05-04 12:59 | 44.85589 | 12.35402 | 23015 ft | 424 kts | 168° |
| 2026-05-04 13:00 | 44.82708 | 12.36367 | 23487 ft | 427 kts | 168° |
| 2026-05-04 13:00 | 44.79807 | 12.37341 | 23909 ft | 431 kts | 168° |
| 2026-05-04 13:00 | 44.76883 | 12.38323 | 24323 ft | 434 kts | 168° |
| 2026-05-04 13:00 | 44.73936 | 12.39308 | 24732 ft | 436 kts | 168° |
| 2026-05-04 13:01 | 44.70976 | 12.40294 | 25138 ft | 439 kts | 168° |
| 2026-05-04 13:01 | 44.67999 | 12.41285 | 25538 ft | 441 kts | 168° |
| 2026-05-04 13:01 | 44.65011 | 12.42283 | 25939 ft | 443 kts | 168° |
| 2026-05-04 13:01 | 44.62004 | 12.43288 | 26330 ft | 445 kts | 168° |
| 2026-05-04 13:02 | 44.58981 | 12.44294 | 26718 ft | 448 kts | 169° |
| 2026-05-04 13:02 | 44.55935 | 12.45308 | 27098 ft | 450 kts | 169° |
| 2026-05-04 13:02 | 44.52878 | 12.46326 | 27474 ft | 453 kts | 169° |
| 2026-05-04 13:02 | 44.49802 | 12.47352 | 27850 ft | 455 kts | 169° |
| 2026-05-04 13:03 | 44.46747 | 12.48368 | 28210 ft | 457 kts | 169° |
| 2026-05-04 13:03 | 44.43643 | 12.49388 | 28513 ft | 460 kts | 169° |
| 2026-05-04 13:03 | 44.40513 | 12.50420 | 28854 ft | 463 kts | 169° |
| 2026-05-04 13:03 | 44.37383 | 12.51458 | 29294 ft | 462 kts | 169° |
| 2026-05-04 13:04 | 44.34246 | 12.52493 | 29751 ft | 461 kts | 170° |
| 2026-05-04 13:04 | 44.31133 | 12.53514 | 30195 ft | 460 kts | 170° |
| 2026-05-04 13:04 | 44.28022 | 12.54537 | 30576 ft | 458 kts | 170° |
| 2026-05-04 13:04 | 44.24922 | 12.55555 | 30944 ft | 457 kts | 170° |
| 2026-05-04 13:05 | 44.21829 | 12.56576 | 31279 ft | 456 kts | 169° |
| 2026-05-04 13:05 | 44.18740 | 12.57594 | 31620 ft | 456 kts | 169° |
| 2026-05-04 13:05 | 44.15655 | 12.58606 | 31954 ft | 455 kts | 169° |
| 2026-05-04 13:05 | 44.12571 | 12.59612 | 32281 ft | 454 kts | 169° |
| 2026-05-04 13:06 | 44.09488 | 12.60614 | 32582 ft | 453 kts | 169° |
| 2026-05-04 13:06 | 44.06420 | 12.61615 | 32883 ft | 453 kts | 169° |
| 2026-05-04 13:06 | 44.03353 | 12.62614 | 33179 ft | 452 kts | 169° |
| 2026-05-04 13:06 | 44.00295 | 12.63611 | 33471 ft | 451 kts | 169° |
| 2026-05-04 13:07 | 43.97244 | 12.64604 | 33759 ft | 451 kts | 169° |
| 2026-05-04 13:07 | 43.94226 | 12.65586 | 34028 ft | 450 kts | 169° |
| 2026-05-04 13:07 | 43.91147 | 12.66593 | 34272 ft | 449 kts | 169° |
| 2026-05-04 13:07 | 43.88099 | 12.67588 | 34487 ft | 449 kts | 169° |
| 2026-05-04 13:08 | 43.85056 | 12.68572 | 34698 ft | 448 kts | 169° |
| 2026-05-04 13:08 | 43.82058 | 12.69544 | 34909 ft | 448 kts | 169° |
| 2026-05-04 13:08 | 43.79026 | 12.70522 | 35123 ft | 447 kts | 169° |
| 2026-05-04 13:09 | 43.73949 | 12.72163 | 35182 ft | 447 kts | 169° |
| 2026-05-04 13:09 | 43.66918 | 12.74426 | 35156 ft | 446 kts | 169° |
| 2026-05-04 13:10 | 43.60882 | 12.76369 | 35154 ft | 446 kts | 170° |
| 2026-05-04 13:10 | 43.55814 | 12.78011 | 35148 ft | 447 kts | 169° |
| 2026-05-04 13:11 | 43.49753 | 12.79958 | 35147 ft | 447 kts | 170° |
| 2026-05-04 13:11 | 43.43745 | 12.81874 | 35152 ft | 446 kts | 170° |
| 2026-05-04 13:12 | 43.37707 | 12.83807 | 35160 ft | 446 kts | 170° |
| 2026-05-04 13:12 | 43.31660 | 12.85732 | 35167 ft | 446 kts | 170° |
| 2026-05-04 13:13 | 43.25606 | 12.87661 | 35170 ft | 447 kts | 170° |
| 2026-05-04 13:13 | 43.19538 | 12.89578 | 35177 ft | 447 kts | 170° |
| 2026-05-04 13:14 | 43.13479 | 12.91486 | 35178 ft | 447 kts | 170° |
| 2026-05-04 13:14 | 43.07404 | 12.93406 | 35172 ft | 448 kts | 170° |
| 2026-05-04 13:15 | 43.01330 | 12.95324 | 35177 ft | 448 kts | 170° |
| 2026-05-04 13:15 | 42.95251 | 12.97240 | 35171 ft | 448 kts | 170° |
| 2026-05-04 13:16 | 42.89215 | 12.99132 | 35174 ft | 448 kts | 170° |
| 2026-05-04 13:16 | 42.83140 | 13.01039 | 35176 ft | 448 kts | 170° |
| 2026-05-04 13:17 | 42.77056 | 13.02941 | 35179 ft | 448 kts | 170° |
| 2026-05-04 13:17 | 42.70976 | 13.04839 | 35193 ft | 448 kts | 170° |
| 2026-05-04 13:18 | 42.64890 | 13.06738 | 35196 ft | 449 kts | 170° |
| 2026-05-04 13:18 | 42.58796 | 13.08635 | 35210 ft | 450 kts | 170° |
| 2026-05-04 13:19 | 42.52694 | 13.10531 | 35206 ft | 450 kts | 170° |
| 2026-05-04 13:19 | 42.46589 | 13.12420 | 35206 ft | 450 kts | 170° |
| 2026-05-04 13:20 | 42.40453 | 13.14316 | 35202 ft | 453 kts | 170° |
| 2026-05-04 13:20 | 42.34304 | 13.16209 | 35196 ft | 453 kts | 170° |
| 2026-05-04 13:21 | 42.28168 | 13.18097 | 35189 ft | 453 kts | 170° |
| 2026-05-04 13:21 | 42.22018 | 13.19980 | 35193 ft | 454 kts | 170° |
| 2026-05-04 13:22 | 42.15853 | 13.21875 | 35192 ft | 454 kts | 170° |
| 2026-05-04 13:22 | 42.09732 | 13.23749 | 35188 ft | 455 kts | 170° |
| 2026-05-04 13:23 | 42.03556 | 13.25636 | 35191 ft | 455 kts | 170° |
| 2026-05-04 13:23 | 41.97389 | 13.27518 | 35200 ft | 455 kts | 170° |
| 2026-05-04 13:24 | 41.91216 | 13.29392 | 35209 ft | 455 kts | 170° |
| 2026-05-04 13:24 | 41.85045 | 13.31271 | 35213 ft | 454 kts | 170° |
| 2026-05-04 13:25 | 41.75763 | 13.34081 | 35223 ft | 457 kts | 170° |
| 2026-05-04 13:25 | 41.69524 | 13.35583 | 35230 ft | 455 kts | 174° |
| 2026-05-04 13:26 | 41.63256 | 13.36829 | 35231 ft | 455 kts | 175° |
| 2026-05-04 13:26 | 41.56981 | 13.38080 | 35225 ft | 457 kts | 175° |
| 2026-05-04 13:27 | 41.50684 | 13.39338 | 35224 ft | 457 kts | 175° |
| 2026-05-04 13:27 | 41.44469 | 13.40576 | 35216 ft | 457 kts | 175° |
| 2026-05-04 13:28 | 41.38171 | 13.41831 | 35208 ft | 458 kts | 175° |
| 2026-05-04 13:28 | 41.31856 | 13.43086 | 35214 ft | 459 kts | 175° |
| 2026-05-04 13:29 | 41.25524 | 13.44342 | 35228 ft | 459 kts | 175° |
| 2026-05-04 13:29 | 41.19199 | 13.45595 | 35206 ft | 460 kts | 175° |
| 2026-05-04 13:30 | 41.12858 | 13.46849 | 35221 ft | 462 kts | 175° |
| 2026-05-04 13:30 | 41.06503 | 13.48105 | 35215 ft | 461 kts | 175° |
| 2026-05-04 13:31 | 41.00155 | 13.49355 | 35226 ft | 461 kts | 175° |
| 2026-05-04 13:31 | 40.93833 | 13.50592 | 35216 ft | 463 kts | 176° |
| 2026-05-04 13:32 | 40.87451 | 13.51838 | 35224 ft | 464 kts | 176° |
| 2026-05-04 13:32 | 40.81063 | 13.53087 | 35224 ft | 464 kts | 176° |
| 2026-05-04 13:33 | 40.74671 | 13.54341 | 35214 ft | 465 kts | 176° |
| 2026-05-04 13:33 | 40.68272 | 13.55585 | 35223 ft | 465 kts | 176° |
| 2026-05-04 13:34 | 40.61866 | 13.56830 | 35223 ft | 466 kts | 176° |
| 2026-05-04 13:34 | 40.55455 | 13.58086 | 35224 ft | 466 kts | 176° |
| 2026-05-04 13:35 | 40.45794 | 13.59963 | 35222 ft | 469 kts | 177° |
| 2026-05-04 13:36 | 40.39335 | 13.61190 | 35219 ft | 469 kts | 176° |
| 2026-05-04 13:36 | 40.32877 | 13.62433 | 35218 ft | 469 kts | 176° |
| 2026-05-04 13:37 | 40.26388 | 13.63683 | 35218 ft | 472 kts | 177° |
| 2026-05-04 13:37 | 40.19891 | 13.64937 | 35216 ft | 472 kts | 177° |
| 2026-05-04 13:38 | 40.13389 | 13.66181 | 35220 ft | 472 kts | 177° |
| 2026-05-04 13:38 | 40.06911 | 13.67419 | 35203 ft | 476 kts | 177° |
| 2026-05-04 13:39 | 40.00332 | 13.68671 | 35219 ft | 478 kts | 177° |
| 2026-05-04 13:39 | 39.93745 | 13.69941 | 35215 ft | 478 kts | 177° |
| 2026-05-04 13:40 | 39.87169 | 13.71192 | 35215 ft | 478 kts | 177° |
| 2026-05-04 13:40 | 39.80579 | 13.72441 | 35216 ft | 478 kts | 177° |
| 2026-05-04 13:41 | 39.73990 | 13.73689 | 35217 ft | 478 kts | 177° |
| 2026-05-04 13:41 | 39.67405 | 13.74923 | 35216 ft | 478 kts | 177° |
| 2026-05-04 13:42 | 39.57506 | 13.76790 | 35211 ft | 480 kts | 177° |
| 2026-05-04 13:42 | 39.50897 | 13.78036 | 35215 ft | 480 kts | 177° |
| 2026-05-04 13:43 | 39.44277 | 13.79293 | 35214 ft | 481 kts | 175° |
| 2026-05-04 13:43 | 39.41022 | 13.80401 | 35196 ft | 490 kts | 163° |
| 2026-05-04 13:43 | 39.37880 | 13.82182 | 35223 ft | 493 kts | 158° |
| 2026-05-04 13:44 | 39.31697 | 13.86063 | 35222 ft | 494 kts | 158° |
| 2026-05-04 13:44 | 39.25496 | 13.89904 | 35223 ft | 494 kts | 158° |
| 2026-05-04 13:45 | 39.19327 | 13.93676 | 35212 ft | 494 kts | 158° |
| 2026-05-04 13:45 | 39.13108 | 13.97479 | 35208 ft | 495 kts | 158° |
| 2026-05-04 13:46 | 39.06887 | 14.01272 | 35212 ft | 495 kts | 158° |
| 2026-05-04 13:46 | 39.00658 | 14.05069 | 35222 ft | 495 kts | 158° |
| 2026-05-04 13:47 | 38.94423 | 14.08836 | 35207 ft | 495 kts | 158° |
| 2026-05-04 13:47 | 38.88180 | 14.12602 | 34470 ft | 495 kts | 158° |
| 2026-05-04 13:48 | 38.85053 | 14.14495 | 33502 ft | 498 kts | 158° |
| 2026-05-04 13:48 | 38.81913 | 14.16392 | 32611 ft | 499 kts | 158° |
| 2026-05-04 13:48 | 38.78780 | 14.18277 | 31757 ft | 499 kts | 158° |
| 2026-05-04 13:48 | 38.75634 | 14.20168 | 30917 ft | 499 kts | 158° |
| 2026-05-04 13:49 | 38.72502 | 14.22053 | 30278 ft | 494 kts | 158° |
| 2026-05-04 13:49 | 38.69411 | 14.23913 | 29591 ft | 488 kts | 158° |
| 2026-05-04 13:49 | 38.66355 | 14.25747 | 28920 ft | 482 kts | 158° |
| 2026-05-04 13:49 | 38.63337 | 14.27560 | 28281 ft | 476 kts | 158° |
| 2026-05-04 13:50 | 38.60368 | 14.29342 | 27714 ft | 469 kts | 158° |
| 2026-05-04 13:50 | 38.57431 | 14.31101 | 27187 ft | 464 kts | 158° |
| 2026-05-04 13:50 | 38.54522 | 14.32839 | 26679 ft | 459 kts | 158° |
| 2026-05-04 13:50 | 38.51634 | 14.34565 | 26190 ft | 455 kts | 158° |
| 2026-05-04 13:51 | 38.48782 | 14.36269 | 25695 ft | 450 kts | 158° |
| 2026-05-04 13:51 | 38.45963 | 14.37951 | 25211 ft | 446 kts | 158° |
| 2026-05-04 13:51 | 38.44104 | 14.39061 | 24897 ft | 444 kts | 158° |
| 2026-05-04 13:51 | 38.41322 | 14.40716 | 24441 ft | 440 kts | 158° |
| 2026-05-04 13:52 | 38.35827 | 14.43984 | 23477 ft | 432 kts | 158° |
| 2026-05-04 13:52 | 38.33116 | 14.45598 | 22971 ft | 428 kts | 158° |
| 2026-05-04 13:52 | 38.30427 | 14.47199 | 22486 ft | 424 kts | 157° |
| 2026-05-04 13:53 | 38.27759 | 14.48787 | 22012 ft | 421 kts | 157° |
| 2026-05-04 13:53 | 38.25118 | 14.50352 | 21573 ft | 417 kts | 157° |
| 2026-05-04 13:53 | 38.22530 | 14.51885 | 21186 ft | 414 kts | 157° |
| 2026-05-04 13:54 | 38.17331 | 14.54973 | 20420 ft | 410 kts | 157° |
| 2026-05-04 13:54 | 38.14752 | 14.56501 | 20057 ft | 407 kts | 156° |
| 2026-05-04 13:54 | 38.09643 | 14.59517 | 19345 ft | 402 kts | 156° |
| 2026-05-04 13:55 | 38.07111 | 14.61008 | 18989 ft | 399 kts | 156° |
| 2026-05-04 13:55 | 38.02143 | 14.63932 | 18264 ft | 387 kts | 156° |
| 2026-05-04 13:55 | 37.99717 | 14.65359 | 17831 ft | 380 kts | 156° |
| 2026-05-04 13:56 | 37.97345 | 14.66755 | 17387 ft | 373 kts | 156° |
| 2026-05-04 13:56 | 37.95004 | 14.68129 | 16941 ft | 367 kts | 157° |
| 2026-05-04 13:56 | 37.90168 | 14.69598 | 16074 ft | 352 kts | 178° |
| 2026-05-04 13:57 | 37.87763 | 14.69405 | 15641 ft | 343 kts | 195° |
| 2026-05-04 13:57 | 37.85587 | 14.68302 | 15261 ft | 332 kts | 214° |
| 2026-05-04 13:58 | 37.81814 | 14.61727 | 14339 ft | 303 kts | 248° |
| 2026-05-04 13:58 | 37.80068 | 14.56893 | 13793 ft | 300 kts | 247° |
| 2026-05-04 13:58 | 37.79192 | 14.54538 | 13519 ft | 291 kts | 246° |
| 2026-05-04 13:59 | 37.78335 | 14.52256 | 13242 ft | 284 kts | 246° |
| 2026-05-04 13:59 | 37.77493 | 14.50024 | 12976 ft | 278 kts | 246° |
| 2026-05-04 13:59 | 37.75278 | 14.46130 | 12431 ft | 279 kts | 216° |
| 2026-05-04 14:00 | 37.73484 | 14.45208 | 12175 ft | 282 kts | 189° |
| 2026-05-04 14:00 | 37.69564 | 14.45499 | 11704 ft | 283 kts | 174° |
| 2026-05-04 14:00 | 37.67607 | 14.45782 | 11463 ft | 282 kts | 175° |
| 2026-05-04 14:01 | 37.65662 | 14.46054 | 11219 ft | 280 kts | 172° |
| 2026-05-04 14:01 | 37.63833 | 14.46859 | 10956 ft | 280 kts | 145° |
| 2026-05-04 14:01 | 37.62227 | 14.51039 | 10470 ft | 272 kts | 85° |
| 2026-05-04 14:02 | 37.62417 | 14.53369 | 10244 ft | 263 kts | 81° |
| 2026-05-04 14:02 | 37.62646 | 14.55635 | 10002 ft | 260 kts | 81° |
| 2026-05-04 14:02 | 37.62850 | 14.57891 | 9741 ft | 259 kts | 82° |
| 2026-05-04 14:02 | 37.63035 | 14.60143 | 9479 ft | 257 kts | 83° |
| 2026-05-04 14:03 | 37.63207 | 14.62387 | 9216 ft | 256 kts | 83° |
| 2026-05-04 14:03 | 37.63371 | 14.64618 | 8964 ft | 255 kts | 84° |
| 2026-05-04 14:03 | 37.63529 | 14.66843 | 8708 ft | 254 kts | 84° |
| 2026-05-04 14:03 | 37.63681 | 14.69032 | 8464 ft | 254 kts | 84° |
| 2026-05-04 14:04 | 37.62833 | 14.73173 | 7943 ft | 249 kts | 136° |
| 2026-05-04 14:04 | 37.61374 | 14.74214 | 7680 ft | 238 kts | 167° |
| 2026-05-04 14:04 | 37.59742 | 14.74505 | 7439 ft | 237 kts | 175° |
| 2026-05-04 14:05 | 37.56448 | 14.74836 | 6951 ft | 234 kts | 184° |
| 2026-05-04 14:05 | 37.54936 | 14.74270 | 6700 ft | 231 kts | 214° |
| 2026-05-04 14:05 | 37.53878 | 14.72795 | 6450 ft | 229 kts | 246° |
| 2026-05-04 14:06 | 37.53524 | 14.70852 | 6203 ft | 229 kts | 265° |
| 2026-05-04 14:06 | 37.53419 | 14.68848 | 5958 ft | 228 kts | 266° |
| 2026-05-04 14:06 | 37.53304 | 14.66863 | 5711 ft | 227 kts | 265° |
| 2026-05-04 14:06 | 37.53162 | 14.64890 | 5461 ft | 226 kts | 264° |
| 2026-05-04 14:07 | 37.53004 | 14.62918 | 5213 ft | 226 kts | 263° |
| 2026-05-04 14:07 | 37.52836 | 14.60971 | 5018 ft | 219 kts | 263° |
| 2026-05-04 14:07 | 37.52670 | 14.59107 | 4989 ft | 213 kts | 263° |
| 2026-05-04 14:07 | 37.52511 | 14.57250 | 4995 ft | 212 kts | 263° |
| 2026-05-04 14:08 | 37.52347 | 14.55404 | 5012 ft | 212 kts | 261° |
| 2026-05-04 14:08 | 37.51863 | 14.53708 | 5012 ft | 209 kts | 232° |
| 2026-05-04 14:08 | 37.50764 | 14.52528 | 5021 ft | 210 kts | 204° |
| 2026-05-04 14:08 | 37.49377 | 14.52174 | 5035 ft | 194 kts | 176° |
| 2026-05-04 14:09 | 37.47304 | 14.53621 | 5036 ft | 179 kts | 129° |
| 2026-05-04 14:09 | 37.46686 | 14.55089 | 5052 ft | 195 kts | 112° |
| 2026-05-04 14:10 | 37.45730 | 14.58299 | 5047 ft | 196 kts | 112° |
| 2026-05-04 14:10 | 37.45230 | 14.59889 | 5036 ft | 195 kts | 113° |
| 2026-05-04 14:10 | 37.44720 | 14.61473 | 5033 ft | 195 kts | 113° |
| 2026-05-04 14:10 | 37.44208 | 14.63061 | 5036 ft | 195 kts | 114° |
| 2026-05-04 14:11 | 37.43731 | 14.64662 | 5025 ft | 196 kts | 105° |
| 2026-05-04 14:11 | 37.43545 | 14.68077 | 5033 ft | 196 kts | 89° |
| 2026-05-04 14:11 | 37.43610 | 14.69797 | 5030 ft | 197 kts | 87° |
| 2026-05-04 14:12 | 37.43721 | 14.71457 | 5013 ft | 187 kts | 85° |
| 2026-05-04 14:12 | 37.43851 | 14.73082 | 4919 ft | 186 kts | 85° |
| 2026-05-04 14:12 | 37.44121 | 14.76316 | 4525 ft | 186 kts | 85° |
| 2026-05-04 14:13 | 37.44258 | 14.77931 | 4294 ft | 186 kts | 85° |
| 2026-05-04 14:13 | 37.44394 | 14.79545 | 4048 ft | 183 kts | 85° |
| 2026-05-04 14:13 | 37.44525 | 14.81111 | 3804 ft | 177 kts | 85° |
| 2026-05-04 14:13 | 37.44652 | 14.82618 | 3561 ft | 168 kts | 85° |
| 2026-05-04 14:14 | 37.44775 | 14.84083 | 3354 ft | 169 kts | 85° |
| 2026-05-04 14:14 | 37.45023 | 14.87014 | 2910 ft | 169 kts | 86° |
| 2026-05-04 14:14 | 37.45145 | 14.88472 | 2736 ft | 167 kts | 85° |
| 2026-05-04 14:15 | 37.45388 | 14.91349 | 2294 ft | 166 kts | 85° |
| 2026-05-04 14:15 | 37.45632 | 14.94254 | 1877 ft | 161 kts | 85° |
| 2026-05-04 14:16 | 37.45846 | 14.96881 | 1377 ft | 150 kts | 86° |
| 2026-05-04 14:16 | 37.45955 | 14.98183 | 1267 ft | 148 kts | 85° |
| 2026-05-04 14:17 | 37.46188 | 15.00813 | 859 ft | 151 kts | 87° |
| 2026-05-04 14:17 | 37.46292 | 15.02116 | 659 ft | 146 kts | 86° |
| 2026-05-04 14:17 | 37.46510 | 15.04575 | 227 ft | 139 kts | 86° |
| 2026-05-04 14:18 | 37.46612 | 15.05795 | 52 ft | 138 kts | 86° |
| 2026-05-04 14:18 | 37.46750 | 15.07438 | 31 ft | 18 kts | 84° |
| 2026-05-04 14:19 | 37.46800 | 15.07673 | 30 ft | 17 kts | 60° |
| 2026-05-04 14:19 | 37.46872 | 15.07793 | 28 ft | 17 kts | 27° |
| 2026-05-04 14:19 | 37.46937 | 15.07724 | 31 ft | 16 kts | 264° |
| 2026-05-04 14:19 | 37.46923 | 15.07572 | 33 ft | 19 kts | 264° |
| 2026-05-04 14:20 | 37.46911 | 15.07426 | 32 ft | 9 kts | 263° |
| 2026-05-04 14:20 | 37.46904 | 15.07348 | 33 ft | 10 kts | 266° |
| 2026-05-04 14:20 | 37.46895 | 15.07246 | 34 ft | 13 kts | 263° |
| 2026-05-04 14:21 | 37.46874 | 15.07005 | 31 ft | 9 kts | 264° |
| 2026-05-04 14:21 | 37.46879 | 15.06929 | 30 ft | 10 kts | 321° |
| 2026-05-04 14:21 | 37.46926 | 15.06916 | 31 ft | 6 kts | 354° |
| 2026-05-04 14:21 | 37.46938 | 15.06914 | 31 ft | 0 kts | 351° |